TimeCDT,TemperatureF,Dew PointF,Humidity,Sea Level PressureIn,VisibilityMPH,Wind Direction,Wind SpeedMPH,Gust SpeedMPH,PrecipitationIn,Events,Conditions,WindDirDegrees,DateUTC
12:05 AM,48.2,44.6,87,30.17,10.0,Calm,Calm,-,N/A,Rain,Light Rain,0,2012-10-08 05:05:00
12:25 AM,48.2,44.6,87,30.18,10.0,Calm,Calm,-,0.01,Rain,Light Rain,0,2012-10-08 05:25:00
12:45 AM,48.2,44.6,87,30.19,9.0,WNW,4.6,-,0.01,Rain,Light Rain,290,2012-10-08 05:45:00
1:05 AM,48.2,46.4,93,30.17,10.0,Calm,Calm,-,0.01,Rain,Light Rain,0,2012-10-08 06:05:00
1:25 AM,48.2,46.4,93,30.18,10.0,Calm,Calm,-,0.01,,Overcast,0,2012-10-08 06:25:00
1:45 AM,48.2,46.4,93,30.19,10.0,Calm,Calm,-,0.01,Rain,Light Rain,0,2012-10-08 06:45:00
2:05 AM,48.2,46.4,93,30.19,10.0,Calm,Calm,-,N/A,Rain,Light Rain,0,2012-10-08 07:05:00
2:25 AM,48.2,44.6,87,30.19,9.0,North,3.5,-,0.01,Rain,Light Rain,350,2012-10-08 07:25:00
2:45 AM,48.2,44.6,87,30.19,8.0,Calm,Calm,-,0.02,Rain,Light Rain,0,2012-10-08 07:45:00
3:05 AM,48.2,44.6,87,30.20,7.0,WNW,3.5,-,0.01,Rain,Light Rain,290,2012-10-08 08:05:00
3:25 AM,48.2,44.6,87,30.20,8.0,Calm,Calm,-,0.02,Rain,Light Rain,0,2012-10-08 08:25:00
3:45 AM,48.2,44.6,87,30.20,7.0,Calm,Calm,-,0.06,Rain,Light Rain,0,2012-10-08 08:45:00
4:05 AM,46.4,44.6,93,30.19,7.0,ENE,3.5,-,0.01,Rain,Light Rain,60,2012-10-08 09:05:00
4:25 AM,46.4,44.6,93,30.18,7.0,NE,3.5,-,0.04,Rain,Light Rain,50,2012-10-08 09:25:00
4:45 AM,46.4,44.6,93,30.20,9.0,NW,3.5,-,0.06,Rain,Light Rain,320,2012-10-08 09:45:00
5:05 AM,46.4,44.6,93,30.20,10.0,Calm,Calm,-,N/A,Rain,Light Rain,0,2012-10-08 10:05:00
5:25 AM,46.4,44.6,93,30.20,10.0,Calm,Calm,-,N/A,,Overcast,0,2012-10-08 10:25:00
5:45 AM,46.4,44.6,93,30.20,10.0,Calm,Calm,-,N/A,,Overcast,0,2012-10-08 10:45:00
6:05 AM,46.4,44.6,93,30.21,10.0,Calm,Calm,-,N/A,,Overcast,0,2012-10-08 11:05:00
6:25 AM,46.4,44.6,93,30.21,10.0,NW,4.6,-,N/A,,Overcast,320,2012-10-08 11:25:00
6:45 AM,46.4,44.6,93,30.22,10.0,NW,5.8,-,N/A,,Overcast,320,2012-10-08 11:45:00
7:05 AM,46.4,44.6,93,30.23,10.0,North,3.5,-,N/A,,Overcast,350,2012-10-08 12:05:00
7:25 AM,46.4,44.6,93,30.23,10.0,Calm,Calm,-,N/A,,Overcast,0,2012-10-08 12:25:00
7:45 AM,46.4,44.6,93,30.23,10.0,NNE,3.5,-,N/A,,Overcast,20,2012-10-08 12:45:00
8:05 AM,48.2,44.6,87,30.23,10.0,NNE,3.5,-,N/A,,Overcast,20,2012-10-08 13:05:00
8:25 AM,48.2,44.6,87,30.23,10.0,NNE,3.5,-,N/A,,Overcast,30,2012-10-08 13:25:00
8:45 AM,48.2,44.6,87,30.23,10.0,North,5.8,-,N/A,,Overcast,360,2012-10-08 13:45:00
9:05 AM,50.0,44.6,82,30.24,10.0,NNE,3.5,-,N/A,,Overcast,20,2012-10-08 14:05:00
9:25 AM,50.0,44.6,82,30.24,10.0,Calm,Calm,-,N/A,,Overcast,0,2012-10-08 14:25:00
9:45 AM,50.0,42.8,76,30.24,10.0,Calm,Calm,-,N/A,,Overcast,0,2012-10-08 14:45:00
10:05 AM,51.8,44.6,76,30.24,10.0,Calm,Calm,-,N/A,,Overcast,0,2012-10-08 15:05:00
10:25 AM,53.6,41.0,62,30.24,10.0,Calm,Calm,-,N/A,,Overcast,0,2012-10-08 15:25:00
10:45 AM,53.6,41.0,62,30.24,10.0,NW,4.6,-,N/A,,Overcast,320,2012-10-08 15:45:00
11:05 AM,53.6,42.8,67,30.24,10.0,North,6.9,-,N/A,,Mostly Cloudy,350,2012-10-08 16:05:00
11:25 AM,53.6,41.0,62,30.24,10.0,NNW,5.8,-,N/A,,Overcast,330,2012-10-08 16:25:00
11:45 AM,55.4,41.0,58,30.24,10.0,NNW,5.8,-,N/A,,Overcast,340,2012-10-08 16:45:00
12:05 PM,55.4,41.0,58,30.23,10.0,North,4.6,-,N/A,,Overcast,350,2012-10-08 17:05:00
12:25 PM,55.4,41.0,58,30.22,10.0,NE,6.9,-,N/A,,Overcast,40,2012-10-08 17:25:00
12:45 PM,55.4,39.2,54,30.21,10.0,NE,8.1,-,N/A,,Mostly Cloudy,40,2012-10-08 17:45:00
1:05 PM,57.2,39.2,51,30.20,10.0,East,6.9,-,N/A,,Partly Cloudy,80,2012-10-08 18:05:00
1:25 PM,57.2,39.2,51,30.20,10.0,NNE,3.5,-,N/A,,Mostly Cloudy,30,2012-10-08 18:25:00
1:45 PM,59.0,39.2,48,30.19,10.0,NNE,5.8,-,N/A,,Scattered Clouds,20,2012-10-08 18:45:00
2:05 PM,57.2,37.4,48,30.18,10.0,Calm,Calm,-,N/A,,Partly Cloudy,0,2012-10-08 19:05:00
2:25 PM,59.0,37.4,45,30.17,10.0,Calm,Calm,-,N/A,,Scattered Clouds,0,2012-10-08 19:25:00
3:05 PM,59.0,37.4,45,30.16,10.0,Calm,Calm,-,N/A,,Mostly Cloudy,0,2012-10-08 20:05:00
3:25 PM,57.2,37.4,48,30.16,10.0,North,3.5,-,N/A,,Mostly Cloudy,10,2012-10-08 20:25:00
3:45 PM,59.0,37.4,45,30.15,10.0,NE,3.5,-,N/A,,Mostly Cloudy,40,2012-10-08 20:45:00
4:05 PM,57.2,37.4,48,30.15,10.0,NE,3.5,-,N/A,,Mostly Cloudy,50,2012-10-08 21:05:00
4:25 PM,59.0,37.4,45,30.15,10.0,Calm,Calm,-,N/A,,Clear,0,2012-10-08 21:25:00
4:45 PM,59.0,37.4,45,30.15,10.0,NNE,4.6,-,N/A,,Partly Cloudy,30,2012-10-08 21:45:00
5:05 PM,59.0,39.2,48,30.15,10.0,NNE,4.6,-,N/A,,Partly Cloudy,20,2012-10-08 22:05:00
5:25 PM,57.2,39.2,51,30.14,10.0,NNE,3.5,-,N/A,,Clear,30,2012-10-08 22:25:00
5:45 PM,57.2,37.4,48,30.14,10.0,North,3.5,-,N/A,,Clear,10,2012-10-08 22:45:00
6:05 PM,55.4,39.2,54,30.14,10.0,Calm,Calm,-,N/A,,Clear,0,2012-10-08 23:05:00
6:25 PM,53.6,41.0,62,30.14,10.0,West,3.5,-,N/A,,Scattered Clouds,270,2012-10-08 23:25:00
6:45 PM,50.0,42.8,76,30.14,10.0,Calm,Calm,-,N/A,,Scattered Clouds,0,2012-10-08 23:45:00
7:05 PM,50.0,44.6,82,30.14,10.0,Calm,Calm,-,N/A,,Clear,0,2012-10-09 00:05:00
7:25 PM,48.2,44.6,87,30.14,10.0,Calm,Calm,-,N/A,,Clear,0,2012-10-09 00:25:00
8:05 PM,46.4,44.6,93,30.16,10.0,Calm,Calm,-,N/A,,Clear,0,2012-10-09 01:05:00
8:25 PM,46.4,42.8,87,30.15,10.0,Calm,Calm,-,N/A,,Clear,0,2012-10-09 01:25:00
9:05 PM,44.6,42.8,93,30.16,10.0,Calm,Calm,-,N/A,,Clear,0,2012-10-09 02:05:00
9:25 PM,44.6,41.0,87,30.17,7.0,Calm,Calm,-,N/A,,Clear,0,2012-10-09 02:25:00
9:45 PM,44.6,41.0,87,30.17,5.0,Calm,Calm,-,N/A,,Clear,0,2012-10-09 02:45:00
10:05 PM,42.8,41.0,93,30.17,9.0,Calm,Calm,-,N/A,,Clear,0,2012-10-09 03:05:00
10:25 PM,41.0,41.0,100,30.17,10.0,Calm,Calm,-,N/A,,Clear,0,2012-10-09 03:25:00
10:45 PM,41.0,41.0,100,30.17,10.0,Calm,Calm,-,N/A,,Clear,0,2012-10-09 03:45:00
11:05 PM,41.0,39.2,93,30.17,10.0,Calm,Calm,-,N/A,,Clear,0,2012-10-09 04:05:00
11:25 PM,41.0,39.2,93,30.16,10.0,Calm,Calm,-,N/A,,Clear,0,2012-10-09 04:25:00
11:45 PM,41.0,39.2,93,30.16,10.0,Calm,Calm,-,N/A,,Clear,0,2012-10-09 04:45:00